Velkommen til

Stord Flyklubb

Om oss

Historien til Stord Flyklubb

Klubbens aner strekker seg tilbake til 1969 med sjøfly. Siden har vi sett vanlige motorfly og glidefly, men det er sportsfly som er hovedfokuset i dag

En kilometer vei vil ta deg en kilometer

En kilometer rullebane vil ta deg hvor enn du vil

Bli pilot

Alle kan lære å fly!

Ta en prøvetur hos oss og se hvor moro det er! Prøveturen gir deg en mulighet til å se om dette er noe du har lyst til å gå videre med.

Teorien tas av de fleste som hjemmeundervisning. Nytt læremateriell gjør opplæringen både enklere og mer strømlinjeformet.

Praksis kan påbegynnes mens man tar teorien, men teorien må være bestått før man kan fly solo. 

METAR Haugesund
ENHD 050020Z AUTO 35016KT 9999 NCD 02/M03 Q1027 ENHD 042350Z AUTO 36016KT 9999 NCD 02/M03 Q1027 ENHD 042320Z AUTO 36015KT 9999 NCD 01/M03 Q1027 ENHD 042250Z AUTO 01017KT 9999 NCD 02/M03 Q1026 ENHD 042220Z AUTO 36018KT 9999 NCD 02/M03 Q1026 ENHD 042150Z AUTO 35022KT 9999 NCD 03/M03 Q1026 TAF ENHD 041700Z 0418/0421 36018KT 9999 FEW020TCU
METAR Flesland
ENBR 050020Z 01004KT 9999 FEW020 SCT048 00/M02 Q1027 RMK WIND 1200FT 35010KT ENBR 042350Z 03003KT 9999 FEW020 SCT059 M00/M02 Q1027 RMK WIND 1200FT 35011KT ENBR 042320Z 02006KT 9999 FEW020 M00/M02 Q1027 RMK WIND 1200FT 35011KT ENBR 042250Z 01005KT 9999 FEW018 M00/M02 Q1027 RMK WIND 1200FT 35012KT ENBR 042220Z 35008KT 9999 FEW018 M00/M02 Q1027 RMK WIND 1200FT 34015KT ENBR 042150Z 01004KT 9999 FEW018 M00/M02 Q1027 RMK WIND 1200FT 34014KT TAF ENBR 0500/0524 VRB07KT 9999 FEW020 PROB40 TEMPO 0509/0524 4000 SHRASN BKN012 SCT020CB